Time;durP1;ratioP1;P1;durP2;ratioP2;P2;SDS_P1;SDS_P2;PMS_P1;PMS_P2;Temp;Humidity;BMP_temperature;BMP_pressure;BME280_temperature;BME280_humidity;BME280_pressure;Samples;Min_cycle;Max_cycle;Signal;HPM_P1;HPM_P2
2023/06/14 00:02:36;;;;;;;3.57;2.90;;;;;16.90;96540.00;;;;4967968;28;20219;-73
2023/06/14 00:05:26;;;;;;;3.13;2.80;;;;;16.80;96544.00;;;;4966960;28;20575;-74
2023/06/14 00:08:18;;;;;;;3.10;2.70;;;;;16.90;96538.00;;;;4970030;28;20277;-75
2023/06/14 00:11:08;;;;;;;2.87;2.67;;;;;17.00;96529.00;;;;4962181;28;20266;-75
2023/06/14 00:13:57;;;;;;;5.57;3.03;;;;;16.70;96535.00;;;;4967759;28;20204;-75
2023/06/14 00:16:46;;;;;;;3.93;3.13;;;;;16.40;96528.00;;;;4965560;28;20235;-75
2023/06/14 00:19:36;;;;;;;3.47;3.17;;;;;16.50;96540.00;;;;4969861;28;20210;-74
2023/06/14 00:22:25;;;;;;;3.20;2.90;;;;;16.30;96529.00;;;;4971213;28;20278;-75
2023/06/14 00:25:16;;;;;;;5.10;2.90;;;;;16.30;96527.00;;;;4970010;28;20203;-74
2023/06/14 00:28:12;;;;;;;4.03;3.30;;;;;16.80;96535.00;;;;4967668;28;20581;-74
2023/06/14 00:31:01;;;;;;;5.97;3.10;;;;;16.70;96533.00;;;;4963698;28;20254;-74
2023/06/14 00:33:50;;;;;;;6.17;3.33;;;;;16.50;96525.00;;;;4970427;28;20199;-75
2023/06/14 00:36:39;;;;;;;4.83;3.50;;;;;16.30;96520.00;;;;4971497;28;20231;-75
2023/06/14 00:39:28;;;;;;;3.97;3.30;;;;;16.50;96521.00;;;;4970878;28;20239;-75
2023/06/14 00:42:26;;;;;;;5.17;3.23;;;;;16.40;96528.00;;;;4966552;28;20233;-75
2023/06/14 00:45:16;;;;;;;5.70;3.43;;;;;16.20;96527.00;;;;4967915;28;20208;-75
2023/06/14 00:48:07;;;;;;;4.17;3.43;;;;;16.00;96529.00;;;;4967515;28;20199;-74
2023/06/14 00:50:56;;;;;;;2.97;2.60;;;;;16.20;96527.00;;;;4971602;28;20212;-73
2023/06/14 00:53:47;;;;;;;3.53;3.13;;;;;16.10;96525.00;;;;4969731;28;20199;-74
2023/06/14 00:56:37;;;;;;;5.27;2.73;;;;;16.60;96525.00;;;;4966357;28;20731;-74
2023/06/14 00:59:28;;;;;;;3.93;2.83;;;;;16.50;96520.00;;;;4969288;28;20211;-74
2023/06/14 01:02:18;;;;;;;4.77;2.83;;;;;16.70;96527.00;;;;4960532;28;20208;-74
2023/06/14 01:05:09;;;;;;;6.37;3.43;;;;;16.80;96518.00;;;;4966930;28;20197;-74
2023/06/14 01:08:12;;;;;;;4.93;3.63;;;;;16.80;96522.00;;;;4968130;28;20211;-74
2023/06/14 01:11:06;;;;;;;3.67;3.17;;;;;16.70;96517.00;;;;4967621;28;20387;-74
2023/06/14 01:13:57;;;;;;;7.10;3.40;;;;;16.60;96517.00;;;;4968455;28;20230;-75
2023/06/14 01:16:53;;;;;;;9.50;3.37;;;;;16.50;96515.00;;;;4964897;28;20277;-74
2023/06/14 01:19:42;;;;;;;3.50;2.80;;;;;16.40;96517.00;;;;4967608;28;20628;-74
2023/06/14 01:22:32;;;;;;;5.27;3.63;;;;;16.40;96508.00;;;;4968752;28;20711;-74
2023/06/14 01:25:25;;;;;;;3.73;3.13;;;;;16.40;96505.00;;;;4966162;28;20580;-74
2023/06/14 01:28:16;;;;;;;5.50;3.23;;;;;16.30;96504.00;;;;4971208;28;20242;-74
2023/06/14 01:31:06;;;;;;;7.83;3.70;;;;;16.40;96500.00;;;;4967594;28;20212;-74
2023/06/14 01:33:55;;;;;;;4.27;3.23;;;;;16.30;96492.00;;;;4958977;28;20206;-75
2023/06/14 01:36:46;;;;;;;3.90;3.57;;;;;16.30;96497.00;;;;4964082;28;20223;-75
2023/06/14 01:39:35;;;;;;;3.93;3.53;;;;;16.50;96492.00;;;;4971452;28;20203;-74
2023/06/14 01:42:27;;;;;;;6.07;3.60;;;;;16.50;96501.00;;;;4967581;28;20207;-74
2023/06/14 01:45:16;;;;;;;4.57;3.13;;;;;16.20;96503.00;;;;4962825;28;20826;-74
2023/06/14 01:48:06;;;;;;;3.40;3.10;;;;;16.00;96500.00;;;;4967398;28;20200;-74
2023/06/14 01:50:55;;;;;;;3.30;3.00;;;;;16.00;96493.00;;;;4963964;28;20204;-74
2023/06/14 01:53:45;;;;;;;3.63;3.17;;;;;16.00;96495.00;;;;4967656;28;20687;-74
2023/06/14 01:56:34;;;;;;;5.13;3.57;;;;;16.10;96486.00;;;;4969364;28;20232;-74
2023/06/14 01:59:24;;;;;;;4.13;3.03;;;;;16.10;96491.00;;;;4968471;28;20204;-74
2023/06/14 02:02:13;;;;;;;9.20;3.37;;;;;16.30;96495.00;;;;4969008;28;20207;-74
2023/06/14 02:05:03;;;;;;;3.73;3.17;;;;;16.50;96493.00;;;;4970120;28;20257;-74
2023/06/14 02:07:53;;;;;;;4.77;3.30;;;;;16.50;96495.00;;;;4965034;28;20204;-74
2023/06/14 02:10:42;;;;;;;7.23;3.53;;;;;16.30;96487.00;;;;4968566;28;20203;-74
2023/06/14 02:13:31;;;;;;;4.90;4.30;;;;;15.60;96483.00;;;;4968027;28;20638;-73
2023/06/14 02:16:21;;;;;;;4.60;3.40;;;;;15.30;96480.00;;;;4965257;28;20227;-74
2023/06/14 02:19:10;;;;;;;3.93;3.50;;;;;15.30;96490.00;;;;4958505;28;20616;-73
2023/06/14 02:22:00;;;;;;;4.67;3.77;;;;;15.70;96487.00;;;;4969555;28;20294;-73
2023/06/14 02:24:50;;;;;;;8.57;3.47;;;;;16.00;96492.00;;;;4966605;28;20255;-74
2023/06/14 02:27:40;;;;;;;6.80;4.30;;;;;16.00;96476.00;;;;4962381;28;20235;-74
2023/06/14 02:30:30;;;;;;;8.60;3.70;;;;;16.10;96472.00;;;;4965772;28;20203;-74
2023/06/14 02:33:21;;;;;;;4.90;3.37;;;;;16.20;96484.00;;;;4965136;28;20286;-74
2023/06/14 02:36:10;;;;;;;3.67;3.37;;;;;16.20;96476.00;;;;4964306;28;20230;-74
2023/06/14 02:39:00;;;;;;;4.50;3.50;;;;;16.40;96484.00;;;;4966046;28;20210;-74
2023/06/14 02:41:49;;;;;;;4.77;3.60;;;;;16.50;96476.00;;;;4969286;28;20199;-74
2023/06/14 02:44:38;;;;;;;4.33;3.50;;;;;16.30;96475.00;;;;4970047;28;20227;-74
2023/06/14 02:47:27;;;;;;;7.20;3.60;;;;;16.20;96476.00;;;;4967044;28;20716;-74
2023/06/14 02:50:18;;;;;;;6.37;4.07;;;;;16.30;96476.00;;;;4964107;28;20277;-74
2023/06/14 02:53:07;;;;;;;3.87;3.30;;;;;16.30;96476.00;;;;4962685;28;20208;-74
2023/06/14 02:55:56;;;;;;;4.93;3.70;;;;;16.30;96471.00;;;;4970432;28;20277;-74
2023/06/14 02:58:46;;;;;;;3.63;3.00;;;;;16.30;96478.00;;;;4970174;28;20204;-73
2023/06/14 03:01:35;;;;;;;4.20;3.43;;;;;16.30;96483.00;;;;4973799;28;20705;-74
2023/06/14 03:04:25;;;;;;;3.47;3.17;;;;;16.30;96479.00;;;;4965036;28;20286;-74
2023/06/14 03:07:19;;;;;;;7.23;4.10;;;;;16.20;96486.00;;;;4970050;28;20242;-74
2023/06/14 03:10:10;;;;;;;5.07;3.03;;;;;16.30;96487.00;;;;4974675;28;20207;-74
2023/06/14 03:13:00;;;;;;;3.27;2.97;;;;;16.20;96477.00;;;;4965480;28;20219;-74
2023/06/14 03:15:50;;;;;;;4.63;4.00;;;;;16.20;96476.00;;;;4970277;28;20230;-74
2023/06/14 03:18:39;;;;;;;4.00;3.60;;;;;16.30;96475.00;;;;4970458;28;20215;-74
2023/06/14 03:21:29;;;;;;;9.80;3.43;;;;;16.30;96471.00;;;;4969100;28;20198;-74
2023/06/14 03:24:20;;;;;;;4.80;3.57;;;;;16.40;96486.00;;;;4972330;28;20361;-74
2023/06/14 03:27:10;;;;;;;3.60;3.30;;;;;16.20;96479.00;;;;4971461;28;20219;-74
2023/06/14 03:29:59;;;;;;;4.37;3.70;;;;;16.30;96475.00;;;;4966289;28;20215;-74
2023/06/14 03:32:48;;;;;;;3.93;3.10;;;;;16.20;96469.00;;;;4969484;28;20617;-74
2023/06/14 03:35:38;;;;;;;5.40;3.30;;;;;16.30;96474.00;;;;4969615;28;20264;-74
2023/06/14 03:38:27;;;;;;;7.27;3.33;;;;;16.20;96471.00;;;;4965071;28;20200;-74
2023/06/14 03:41:17;;;;;;;3.00;2.80;;;;;16.10;96471.00;;;;4970022;28;20233;-74
2023/06/14 03:44:06;;;;;;;3.80;3.20;;;;;16.30;96483.00;;;;4965062;28;20700;-74
2023/06/14 03:46:55;;;;;;;3.47;3.17;;;;;16.30;96491.00;;;;4973862;28;20234;-74
2023/06/14 03:49:44;;;;;;;4.40;3.73;;;;;16.30;96472.00;;;;4969175;28;20204;-74
2023/06/14 03:52:34;;;;;;;3.93;3.53;;;;;16.10;96473.00;;;;4966941;28;20665;-74
2023/06/14 03:55:25;;;;;;;4.93;3.37;;;;;15.50;96484.00;;;;4970555;28;20324;-74
2023/06/14 03:58:18;;;;;;;5.63;3.83;;;;;15.60;96480.00;;;;4974531;28;20203;-74
2023/06/14 04:01:07;;;;;;;3.47;3.17;;;;;15.50;96483.00;;;;4977425;28;20203;-73
2023/06/14 04:03:57;;;;;;;5.63;3.97;;;;;15.40;96494.00;;;;4983114;28;20238;-73
2023/06/14 04:06:48;;;;;;;4.50;4.10;;;;;15.30;96489.00;;;;4988986;28;20218;-73
2023/06/14 04:09:37;;;;;;;4.50;3.57;;;;;15.60;96487.00;;;;4976138;28;20207;-73
2023/06/14 04:12:26;;;;;;;6.47;3.77;;;;;15.30;96494.00;;;;4974231;28;20230;-74
2023/06/14 04:15:17;;;;;;;5.60;3.50;;;;;15.50;96499.00;;;;4973246;28;20204;-74
2023/06/14 04:18:09;;;;;;;4.67;3.03;;;;;15.80;96491.00;;;;4968181;28;20579;-73
2023/06/14 04:20:59;;;;;;;7.17;3.90;;;;;16.00;96507.00;;;;4986412;28;20215;-73
2023/06/14 04:23:48;;;;;;;4.23;3.47;;;;;16.00;96506.00;;;;4978252;28;20206;-75
2023/06/14 04:26:37;;;;;;;5.53;3.97;;;;;16.20;96508.00;;;;4973001;28;20711;-74
2023/06/14 04:29:26;;;;;;;7.17;3.73;;;;;16.40;96504.00;;;;4980184;28;20204;-74
2023/06/14 04:32:18;;;;;;;3.33;3.03;;;;;16.60;96506.00;;;;4974391;28;20207;-74
2023/06/14 04:35:09;;;;;;;3.37;3.07;;;;;16.40;96512.00;;;;4969452;28;20203;-74
2023/06/14 04:37:58;;;;;;;4.67;3.47;;;;;16.30;96513.00;;;;4970401;28;20223;-74
2023/06/14 04:40:47;;;;;;;5.73;2.53;;;;;15.90;96502.00;;;;4989081;28;20207;-74
2023/06/14 04:43:37;;;;;;;8.03;3.13;;;;;16.00;96505.00;;;;4973329;28;20208;-75
2023/06/14 04:46:28;;;;;;;6.33;3.83;;;;;16.00;96511.00;;;;4985048;28;20233;-74
2023/06/14 04:49:18;;;;;;;4.70;3.50;;;;;16.00;96506.00;;;;4977994;28;20203;-74
2023/06/14 04:52:10;;;;;;;9.57;4.00;;;;;16.20;96510.00;;;;4978260;28;20198;-74
2023/06/14 04:54:59;;;;;;;4.47;4.03;;;;;16.10;96498.00;;;;4981763;28;20208;-74
2023/06/14 04:57:48;;;;;;;5.40;3.53;;;;;15.90;96516.00;;;;4970876;28;20708;-74
2023/06/14 05:00:38;;;;;;;7.43;3.80;;;;;15.80;96524.00;;;;4971066;28;20688;-74
2023/06/14 05:03:27;;;;;;;5.00;3.10;;;;;16.00;96516.00;;;;4965420;28;20195;-75
2023/06/14 05:06:18;;;;;;;3.23;2.93;;;;;16.00;96514.00;;;;4961867;28;20639;-74
2023/06/14 05:09:07;;;;;;;3.63;3.17;;;;;16.10;96519.00;;;;4968394;28;20215;-74
2023/06/14 05:11:56;;;;;;;4.70;3.60;;;;;16.20;96522.00;;;;4962286;28;20206;-74
2023/06/14 05:14:46;;;;;;;6.10;4.17;;;;;16.00;96523.00;;;;4961882;28;20206;-74
2023/06/14 05:17:36;;;;;;;4.73;3.80;;;;;16.10;96529.00;;;;4974143;28;20226;-74
2023/06/14 05:20:26;;;;;;;4.43;3.77;;;;;16.20;96522.00;;;;4969856;28;20210;-74
2023/06/14 05:23:16;;;;;;;4.20;3.80;;;;;16.20;96534.00;;;;4964544;28;20235;-75
2023/06/14 05:26:06;;;;;;;5.33;4.00;;;;;16.40;96531.00;;;;4970224;28;20227;-74
2023/06/14 05:28:56;;;;;;;7.30;3.47;;;;;16.60;96531.00;;;;4973944;28;20281;-74
2023/06/14 05:31:45;;;;;;;3.93;3.40;;;;;16.50;96533.00;;;;4973263;28;20669;-74
2023/06/14 05:34:34;;;;;;;6.30;3.70;;;;;16.50;96546.00;;;;4971293;28;20620;-74
2023/06/14 05:37:23;;;;;;;6.07;3.60;;;;;16.50;96539.00;;;;4967640;28;20294;-74
2023/06/14 05:40:14;;;;;;;5.47;4.00;;;;;16.40;96536.00;;;;4964355;28;20867;-74
2023/06/14 05:43:03;;;;;;;4.83;3.47;;;;;16.50;96547.00;;;;4967658;28;20692;-74
2023/06/14 05:45:52;;;;;;;4.50;3.03;;;;;16.50;96540.00;;;;4963719;28;20238;-75
2023/06/14 05:48:41;;;;;;;4.30;3.90;;;;;16.20;96544.00;;;;4964296;28;20207;-74
2023/06/14 05:51:31;;;;;;;7.13;4.17;;;;;16.20;96540.00;;;;4961698;28;20204;-74
2023/06/14 05:54:20;;;;;;;3.73;3.17;;;;;16.40;96547.00;;;;4966436;28;20621;-74
2023/06/14 05:57:11;;;;;;;3.30;2.97;;;;;16.60;96552.00;;;;4980094;28;20235;-74
2023/06/14 06:00:00;;;;;;;5.23;3.30;;;;;16.40;96550.00;;;;4989620;28;20209;-74
2023/06/14 06:02:49;;;;;;;4.37;3.20;;;;;16.50;96551.00;;;;4976609;28;20203;-74
2023/06/14 06:05:39;;;;;;;5.93;3.60;;;;;16.60;96555.00;;;;4980252;28;20238;-74
2023/06/14 06:08:28;;;;;;;4.93;3.10;;;;;16.60;96561.00;;;;4981832;28;20213;-75
2023/06/14 06:11:17;;;;;;;3.37;3.07;;;;;16.40;96562.00;;;;4981336;28;20695;-74
2023/06/14 06:14:07;;;;;;;4.90;3.43;;;;;16.50;96552.00;;;;4985825;28;20211;-74
2023/06/14 06:16:57;;;;;;;3.90;3.60;;;;;16.90;96552.00;;;;4981471;28;20216;-74
2023/06/14 06:19:46;;;;;;;5.77;3.63;;;;;17.10;96547.00;;;;4980011;28;20566;-74
2023/06/14 06:22:35;;;;;;;8.27;3.57;;;;;17.30;96555.00;;;;4977276;28;20207;-74
2023/06/14 06:25:25;;;;;;;3.07;2.77;;;;;17.40;96552.00;;;;4981802;28;20226;-74
2023/06/14 06:28:15;;;;;;;3.37;3.07;;;;;17.40;96560.00;;;;4981809;28;20194;-75
2023/06/14 06:31:05;;;;;;;4.77;3.53;;;;;17.30;96556.00;;;;4975421;28;20219;-74
2023/06/14 06:33:55;;;;;;;6.10;3.00;;;;;17.40;96566.00;;;;4975172;28;20553;-74
2023/06/14 06:36:44;;;;;;;6.10;3.73;;;;;17.30;96568.00;;;;4985099;28;20384;-74
2023/06/14 06:39:33;;;;;;;5.63;3.80;;;;;17.50;96577.00;;;;4976146;28;20214;-74
2023/06/14 06:42:22;;;;;;;5.57;3.97;;;;;17.70;96573.00;;;;4979711;28;20624;-74
2023/06/14 06:45:11;;;;;;;3.90;3.30;;;;;17.50;96580.00;;;;4980715;28;20719;-74
2023/06/14 06:48:02;;;;;;;3.87;3.53;;;;;17.40;96581.00;;;;4981372;28;22062;-74
2023/06/14 06:50:52;;;;;;;4.87;3.40;;;;;17.30;96585.00;;;;4980318;28;20291;-74
2023/06/14 06:53:42;;;;;;;5.37;3.70;;;;;17.10;96587.00;;;;4988101;28;20199;-74
2023/06/14 06:56:32;;;;;;;3.83;3.47;;;;;17.30;96581.00;;;;4982390;28;20310;-74
2023/06/14 06:59:21;;;;;;;4.77;4.37;;;;;17.60;96598.00;;;;4981313;28;20198;-73
2023/06/14 07:02:10;;;;;;;5.43;3.70;;;;;17.70;96585.00;;;;4983330;28;20198;-73
2023/06/14 07:05:00;;;;;;;5.60;4.40;;;;;17.70;96589.00;;;;4983167;28;20221;-74
2023/06/14 07:07:49;;;;;;;4.93;4.03;;;;;17.70;96596.00;;;;4985739;28;20223;-74
2023/06/14 07:10:38;;;;;;;4.43;3.93;;;;;17.90;96593.00;;;;4990538;28;20210;-75
2023/06/14 07:13:28;;;;;;;4.47;4.07;;;;;17.70;96602.00;;;;4979377;28;20200;-74
2023/06/14 07:16:17;;;;;;;6.07;4.10;;;;;18.00;96606.00;;;;4987012;28;20226;-75
2023/06/14 07:19:06;;;;;;;4.93;3.97;;;;;18.00;96599.00;;;;4987527;28;20309;-75
2023/06/14 07:21:58;;;;;;;6.00;3.97;;;;;18.10;96604.00;;;;4984573;28;20692;-74
2023/06/14 07:24:47;;;;;;;4.03;3.63;;;;;18.30;96611.00;;;;4980008;28;20210;-75
2023/06/14 07:27:36;;;;;;;6.77;4.10;;;;;18.40;96616.00;;;;4982841;28;20248;-75
2023/06/14 07:30:26;;;;;;;7.10;3.90;;;;;18.70;96616.00;;;;4988224;28;20264;-75
2023/06/14 07:33:16;;;;;;;6.57;3.90;;;;;18.80;96624.00;;;;4988719;28;20203;-74
2023/06/14 07:36:05;;;;;;;5.27;3.80;;;;;18.80;96628.00;;;;4998926;28;20211;-75
2023/06/14 07:38:55;;;;;;;6.93;4.03;;;;;18.90;96635.00;;;;4982102;28;20215;-75
2023/06/14 07:41:45;;;;;;;5.20;3.40;;;;;18.70;96638.00;;;;4981855;28;20199;-75
2023/06/14 07:44:34;;;;;;;6.10;4.20;;;;;18.60;96634.00;;;;5002922;23;20236;-70
2023/06/14 07:47:23;;;;;;;4.93;3.37;;;;;18.30;96645.00;;;;4945837;28;20228;-71
2023/06/14 07:50:12;;;;;;;7.60;3.90;;;;;18.60;96637.00;;;;4971573;28;20242;-70
2023/06/14 07:53:01;;;;;;;4.83;3.37;;;;;18.00;96645.00;;;;4966810;28;20211;-70
2023/06/14 07:55:52;;;;;;;5.50;3.77;;;;;18.40;96653.00;;;;4951894;29;20254;-69
2023/06/14 07:58:41;;;;;;;6.60;3.37;;;;;17.70;96657.00;;;;4953431;29;20208;-70
2023/06/14 08:01:31;;;;;;;3.27;2.93;;;;;17.70;96670.00;;;;4950064;29;20581;-70
2023/06/14 08:04:20;;;;;;;4.37;3.33;;;;;17.60;96666.00;;;;4951020;28;20236;-71
2023/06/14 08:07:09;;;;;;;4.37;3.50;;;;;17.50;96654.00;;;;4949796;28;20237;-70
2023/06/14 08:09:58;;;;;;;6.80;3.10;;;;;17.60;96660.00;;;;4949342;28;20290;-70
2023/06/14 08:12:49;;;;;;;4.93;3.90;;;;;17.50;96682.00;;;;4949342;28;20212;-70
2023/06/14 08:15:38;;;;;;;3.90;3.33;;;;;16.80;96691.00;;;;4945311;28;20670;-69
2023/06/14 08:18:28;;;;;;;4.43;3.80;;;;;16.40;96701.00;;;;4942531;29;20205;-68
2023/06/14 08:21:17;;;;;;;10.47;5.03;;;;;16.80;96692.00;;;;4953181;29;20203;-71
2023/06/14 08:24:07;;;;;;;3.70;3.03;;;;;16.90;96681.00;;;;4950615;28;20693;-71
2023/06/14 08:26:57;;;;;;;7.63;4.30;;;;;17.20;96693.00;;;;4953693;28;20822;-72
2023/06/14 08:29:48;;;;;;;5.03;3.60;;;;;17.00;96690.00;;;;4952763;28;20564;-69
2023/06/14 08:32:37;;;;;;;5.00;4.00;;;;;16.20;96690.00;;;;4950108;28;20200;-67
2023/06/14 08:35:26;;;;;;;6.70;4.23;;;;;15.60;96698.00;;;;4951241;28;20705;-68
2023/06/14 08:38:15;;;;;;;7.40;3.97;;;;;15.70;96702.00;;;;4951035;28;20207;-71
2023/06/14 08:41:07;;;;;;;6.10;4.33;;;;;16.30;96710.00;;;;4946400;29;20212;-70
2023/06/14 08:43:56;;;;;;;5.67;3.67;;;;;16.40;96704.00;;;;4956563;28;20285;-71
2023/06/14 08:46:48;;;;;;;4.00;3.43;;;;;16.30;96710.00;;;;4972120;28;20227;-71
2023/06/14 08:49:38;;;;;;;6.63;3.33;;;;;16.20;96715.00;;;;4972950;28;20199;-70
2023/06/14 08:52:30;;;;;;;5.90;3.80;;;;;15.70;96720.00;;;;4965750;28;20214;-70
2023/06/14 08:55:19;;;;;;;4.23;3.83;;;;;15.70;96720.00;;;;4972393;28;20286;-69
2023/06/14 08:58:09;;;;;;;3.70;2.97;;;;;16.40;96736.00;;;;4960838;28;20227;-71
2023/06/14 09:00:59;;;;;;;8.50;3.87;;;;;16.20;96727.00;;;;4970246;28;20223;-70
2023/06/14 09:03:50;;;;;;;5.40;4.33;;;;;16.00;96727.00;;;;4964730;28;20223;-71
2023/06/14 09:06:39;;;;;;;4.23;3.83;;;;;15.80;96723.00;;;;4963372;28;20748;-69
2023/06/14 09:09:28;;;;;;;4.67;3.67;;;;;15.40;96729.00;;;;4962174;28;20199;-71
2023/06/14 09:12:17;;;;;;;3.93;3.57;;;;;15.80;96730.00;;;;4971988;28;20210;-69
2023/06/14 09:15:08;;;;;;;4.80;3.50;;;;;16.30;96739.00;;;;4965799;28;20601;-70
2023/06/14 09:17:57;;;;;;;4.53;3.60;;;;;16.80;96729.00;;;;4965435;28;20212;-70
2023/06/14 09:20:48;;;;;;;4.47;3.30;;;;;17.10;96730.00;;;;4961614;28;20211;-69
2023/06/14 09:23:39;;;;;;;4.63;3.47;;;;;17.00;96740.00;;;;4963377;28;20254;-69
2023/06/14 09:26:28;;;;;;;6.37;3.43;;;;;17.10;96736.00;;;;4964038;28;20203;-70
2023/06/14 09:29:18;;;;;;;4.47;3.70;;;;;17.20;96734.00;;;;4966501;28;20283;-69
2023/06/14 09:32:09;;;;;;;4.37;3.50;;;;;17.40;96729.00;;;;4966753;28;20207;-69
2023/06/14 09:34:58;;;;;;;5.67;3.27;;;;;16.60;96734.00;;;;4970021;28;20700;-72
2023/06/14 09:37:49;;;;;;;7.50;3.60;;;;;16.40;96727.00;;;;4970522;28;20203;-69
2023/06/14 09:40:38;;;;;;;3.43;3.13;;;;;16.40;96724.00;;;;4965423;28;20728;-71
2023/06/14 09:43:28;;;;;;;5.03;3.57;;;;;16.70;96723.00;;;;4969908;28;20219;-69
2023/06/14 09:46:17;;;;;;;6.50;3.53;;;;;16.90;96721.00;;;;4968141;28;20692;-71
2023/06/14 09:49:08;;;;;;;4.00;3.33;;;;;17.00;96721.00;;;;4968680;28;20226;-71
2023/06/14 09:51:58;;;;;;;5.00;3.77;;;;;16.90;96712.00;;;;4969748;28;20195;-69
2023/06/14 09:54:49;;;;;;;4.90;4.17;;;;;17.50;96719.00;;;;4965139;28;20228;-70
2023/06/14 09:57:40;;;;;;;6.20;4.93;;;;;17.50;96708.00;;;;4970877;28;20294;-71
2023/06/14 10:00:32;;;;;;;4.13;3.37;;;;;17.40;96719.00;;;;4967556;28;20211;-67
2023/06/14 10:03:26;;;;;;;4.67;3.40;;;;;18.20;96712.00;;;;4967971;28;20214;-72
2023/06/14 10:06:15;;;;;;;5.60;3.53;;;;;18.40;96703.00;;;;4969369;28;20207;-70
2023/06/14 10:09:06;;;;;;;5.23;3.10;;;;;18.30;96701.00;;;;4968831;28;20210;-71
2023/06/14 10:11:56;;;;;;;5.67;3.77;;;;;18.40;96702.00;;;;4969738;28;20203;-71
2023/06/14 10:14:46;;;;;;;3.97;3.60;;;;;19.90;96707.00;;;;4966802;28;20223;-70
2023/06/14 10:17:41;;;;;;;5.53;3.87;;;;;20.50;96704.00;;;;4965941;28;20567;-71
2023/06/14 10:20:35;;;;;;;3.93;3.40;;;;;20.60;96713.00;;;;4967471;28;20242;-70
2023/06/14 10:23:25;;;;;;;3.77;3.43;;;;;19.90;96722.00;;;;4964829;28;20211;-70
2023/06/14 10:26:24;;;;;;;5.20;3.43;;;;;20.70;96721.00;;;;4967721;28;20203;-70
2023/06/14 10:29:15;;;;;;;4.30;3.50;;;;;21.30;96720.00;;;;4965708;28;20195;-71
2023/06/14 10:32:05;;;;;;;4.00;3.53;;;;;21.60;96723.00;;;;4966722;28;20203;-71
2023/06/14 10:34:56;;;;;;;5.43;3.57;;;;;22.10;96727.00;;;;4970226;28;21050;-71
2023/06/14 10:37:48;;;;;;;3.30;2.80;;;;;22.10;96725.00;;;;4968110;28;20227;-71
2023/06/14 10:40:38;;;;;;;4.63;3.53;;;;;22.20;96726.00;;;;4966624;28;20240;-71
2023/06/14 10:43:27;;;;;;;6.87;2.83;;;;;21.70;96730.00;;;;4967741;28;20200;-70
2023/06/14 10:46:21;;;;;;;4.63;2.80;;;;;21.50;96725.00;;;;4969899;28;20583;-70
2023/06/14 10:49:10;;;;;;;3.50;3.20;;;;;20.90;96719.00;;;;4963235;28;20230;-71
2023/06/14 10:51:59;;;;;;;4.33;3.73;;;;;21.40;96725.00;;;;4966508;28;20262;-71
2023/06/14 10:55:03;;;;;;;5.77;3.00;;;;;21.70;96724.00;;;;4966527;28;20223;-70
2023/06/14 10:57:56;;;;;;;4.13;3.17;;;;;21.60;96717.00;;;;4966277;28;20195;-71
2023/06/14 11:00:46;;;;;;;3.73;3.27;;;;;22.10;96697.00;;;;4966429;28;20207;-71
2023/06/14 11:03:53;;;;;;;4.77;2.90;;;;;22.40;96708.00;;;;4966049;28;20211;-71
2023/06/14 11:06:49;;;;;;;4.40;3.27;;;;;22.60;96706.00;;;;4968620;28;20203;-71
2023/06/14 11:09:55;;;;;;;4.80;3.67;;;;;22.40;96722.00;;;;4969392;28;20231;-71
2023/06/14 11:12:48;;;;;;;3.90;3.17;;;;;22.00;96723.00;;;;4967889;28;20199;-72
2023/06/14 11:15:38;;;;;;;6.20;3.60;;;;;21.50;96725.00;;;;4966301;28;20324;-71
2023/06/14 11:18:29;;;;;;;5.10;3.90;;;;;21.90;96725.00;;;;4966479;28;20676;-71
2023/06/14 11:21:20;;;;;;;3.33;2.80;;;;;21.60;96735.00;;;;4964512;28;20199;-71
2023/06/14 11:24:12;;;;;;;3.67;3.13;;;;;21.20;96736.00;;;;4970144;28;20219;-71
2023/06/14 11:27:01;;;;;;;4.60;2.90;;;;;21.20;96732.00;;;;4965658;28;20702;-71
2023/06/14 11:29:51;;;;;;;3.57;3.27;;;;;21.10;96721.00;;;;4962416;28;20756;-71
2023/06/14 11:32:40;;;;;;;2.60;2.40;;;;;21.20;96711.00;;;;4968738;28;20218;-71
2023/06/14 11:35:29;;;;;;;5.60;5.10;;;;;22.00;96691.00;;;;4967792;28;20230;-72
2023/06/14 11:38:20;;;;;;;3.67;3.30;;;;;22.00;96688.00;;;;4965193;28;20340;-71
2023/06/14 11:41:09;;;;;;;3.20;2.90;;;;;20.90;96682.00;;;;4969946;28;20203;-69
2023/06/14 11:43:58;;;;;;;3.80;3.20;;;;;22.80;96665.00;;;;4964545;28;20236;-72
2023/06/14 11:46:47;;;;;;;3.30;3.00;;;;;22.40;96664.00;;;;4969148;28;20215;-70
2023/06/14 11:49:37;;;;;;;4.43;2.90;;;;;23.30;96686.00;;;;4969460;28;20775;-70
2023/06/14 11:52:26;;;;;;;3.60;3.30;;;;;20.90;96676.00;;;;4966806;28;20208;-68
2023/06/14 11:55:17;;;;;;;5.47;3.07;;;;;21.30;96677.00;;;;4965363;28;20231;-70
2023/06/14 11:58:06;;;;;;;3.30;2.90;;;;;21.10;96672.00;;;;4967720;28;20283;-71
2023/06/14 12:00:56;;;;;;;4.23;3.27;;;;;21.30;96682.00;;;;4966413;28;20273;-71
2023/06/14 12:03:49;;;;;;;5.57;3.00;;;;;21.30;96684.00;;;;4965699;28;20231;-71
2023/06/14 12:06:39;;;;;;;3.60;2.83;;;;;21.90;96687.00;;;;4964235;28;20215;-73
2023/06/14 12:09:28;;;;;;;3.00;2.70;;;;;22.10;96691.00;;;;4963729;28;20223;-71
2023/06/14 12:12:19;;;;;;;5.50;3.00;;;;;21.60;96695.00;;;;4969205;28;20293;-72
2023/06/14 12:15:11;;;;;;;3.10;2.53;;;;;21.70;96693.00;;;;4969664;28;20582;-72
2023/06/14 12:18:00;;;;;;;3.30;2.73;;;;;21.70;96688.00;;;;4969081;28;20207;-72
2023/06/14 12:20:51;;;;;;;3.40;2.60;;;;;21.80;96688.00;;;;4971719;28;20204;-72
2023/06/14 12:23:47;;;;;;;3.50;2.67;;;;;21.80;96681.00;;;;4971701;28;20211;-72
2023/06/14 12:26:40;;;;;;;5.63;3.47;;;;;21.70;96669.00;;;;4971861;28;20246;-72
2023/06/14 12:29:31;;;;;;;3.30;2.40;;;;;22.10;96666.00;;;;4970202;28;20282;-72
2023/06/14 12:32:20;;;;;;;4.60;2.80;;;;;21.80;96673.00;;;;4970725;28;20207;-72
2023/06/14 12:35:11;;;;;;;2.87;2.50;;;;;22.10;96692.00;;;;4971465;28;20226;-72
2023/06/14 12:38:00;;;;;;;4.63;2.60;;;;;22.20;96695.00;;;;4971518;28;20222;-72
2023/06/14 12:40:49;;;;;;;3.90;3.03;;;;;22.60;96683.00;;;;4972045;28;20238;-72
2023/06/14 12:43:38;;;;;;;3.23;2.63;;;;;22.70;96679.00;;;;4968148;28;20199;-72
2023/06/14 12:46:29;;;;;;;3.10;2.80;;;;;22.80;96667.00;;;;4969000;28;20235;-72
2023/06/14 12:49:18;;;;;;;3.10;2.37;;;;;24.30;96661.00;;;;4968526;28;20263;-71
2023/06/14 12:52:08;;;;;;;3.17;2.87;;;;;24.30;96664.00;;;;4971744;28;20214;-72
2023/06/14 12:54:57;;;;;;;6.47;3.30;;;;;24.10;96666.00;;;;4971326;28;20231;-72
2023/06/14 12:57:49;;;;;;;5.70;3.13;;;;;24.00;96684.00;;;;4968521;28;20599;-72
2023/06/14 13:00:38;;;;;;;3.80;3.07;;;;;23.70;96683.00;;;;4969729;28;20202;-72
2023/06/14 13:03:28;;;;;;;4.07;3.00;;;;;23.70;96691.00;;;;4969556;28;20210;-72
2023/06/14 13:06:17;;;;;;;2.90;2.60;;;;;22.70;96686.00;;;;4970431;28;20214;-72
2023/06/14 13:09:07;;;;;;;4.63;3.10;;;;;23.00;96689.00;;;;4967700;28;20227;-72
2023/06/14 13:11:57;;;;;;;7.57;2.90;;;;;21.80;96690.00;;;;4970376;28;20199;-71
2023/06/14 13:14:46;;;;;;;5.37;3.27;;;;;22.70;96688.00;;;;4968037;28;20711;-71
2023/06/14 13:17:38;;;;;;;6.20;3.43;;;;;22.80;96689.00;;;;4966767;28;20681;-71
2023/06/14 13:20:28;;;;;;;6.13;3.07;;;;;23.50;96691.00;;;;4968898;28;20203;-71
2023/06/14 13:23:18;;;;;;;3.30;3.00;;;;;23.10;96689.00;;;;4967786;28;20204;-72
2023/06/14 13:26:07;;;;;;;3.83;2.50;;;;;23.40;96681.00;;;;4970617;28;20199;-72
2023/06/14 13:28:56;;;;;;;3.50;3.03;;;;;23.40;96675.00;;;;4968169;28;20589;-72
2023/06/14 13:31:45;;;;;;;4.10;3.47;;;;;23.20;96663.00;;;;4968100;28;20203;-72
2023/06/14 13:34:35;;;;;;;3.83;3.20;;;;;24.40;96651.00;;;;4969568;28;20712;-72
2023/06/14 13:37:25;;;;;;;6.80;3.07;;;;;24.90;96618.00;;;;4968071;28;20214;-72
2023/06/14 13:40:15;;;;;;;3.67;3.30;;;;;24.90;96673.00;;;;4967364;28;20212;-72
2023/06/14 13:43:05;;;;;;;4.13;3.70;;;;;24.80;96678.00;;;;4969743;28;20208;-72
2023/06/14 13:45:54;;;;;;;4.60;3.30;;;;;24.10;96667.00;;;;5004844;23;20226;-75
2023/06/14 13:48:43;;;;;;;5.50;3.40;;;;;25.10;96629.00;;;;4990144;28;20242;-74
2023/06/14 13:51:34;;;;;;;3.50;3.13;;;;;25.00;96658.00;;;;4989134;28;20206;-74
2023/06/14 13:54:25;;;;;;;3.77;3.10;;;;;25.00;96599.00;;;;4984957;28;20227;-75
2023/06/14 13:57:14;;;;;;;4.90;3.13;;;;;25.80;96656.00;;;;4967884;28;20204;-76
2023/06/14 14:00:04;;;;;;;4.47;2.90;;;;;26.00;96652.00;;;;4969011;28;20215;-74
2023/06/14 14:02:54;;;;;;;3.40;3.10;;;;;25.70;96647.00;;;;4968198;28;20767;-75
2023/06/14 14:05:43;;;;;;;4.53;4.07;;;;;25.30;96612.00;;;;4971591;28;20229;-76
2023/06/14 14:08:32;;;;;;;4.47;2.90;;;;;25.90;96643.00;;;;4976859;28;20199;-76
2023/06/14 14:11:23;;;;;;;3.93;3.03;;;;;26.20;96574.00;;;;4967261;28;20203;-77
2023/06/14 14:14:12;;;;;;;3.47;2.90;;;;;23.90;96583.00;;;;4968919;28;20606;-76